createdAt,value
2023-06-30T00:00:55.190Z,5.97
2023-06-30T00:04:03.577Z,7.78
2023-06-30T00:07:11.496Z,4.22
2023-06-30T00:10:16.993Z,7.63
2023-06-30T00:13:22.427Z,7.68
2023-06-30T00:16:27.808Z,4.43
2023-06-30T00:19:33.443Z,4.50
2023-06-30T00:22:39.069Z,5.78
2023-06-30T00:25:44.599Z,4.82
2023-06-30T00:28:50.170Z,5.22
2023-06-30T00:31:55.622Z,3.55
2023-06-30T00:35:02.068Z,4.53
2023-06-30T00:38:07.603Z,5.97
2023-06-30T00:41:13.381Z,4.90
2023-06-30T00:44:18.592Z,3.78
2023-06-30T00:47:24.362Z,4.95
2023-06-30T00:50:31.640Z,7.10
2023-06-30T00:53:38.189Z,6.15
2023-06-30T00:56:43.962Z,9.23
2023-06-30T00:59:49.616Z,4.53
2023-06-30T01:03:02.874Z,5.97
2023-06-30T01:06:19.019Z,3.58
2023-06-30T01:09:28.961Z,4.57
2023-06-30T01:12:36.348Z,4.72
2023-06-30T01:15:44.649Z,9.02
2023-06-30T01:18:54.835Z,8.10
2023-06-30T01:22:09.258Z,8.52
2023-06-30T01:25:22.734Z,5.10
2023-06-30T01:28:35.078Z,5.07
2023-06-30T01:31:44.835Z,5.45
2023-06-30T01:34:50.373Z,4.32
2023-06-30T01:37:57.010Z,6.68
2023-06-30T01:41:08.322Z,5.05
2023-06-30T01:44:14.309Z,8.05
2023-06-30T01:47:20.516Z,3.00
2023-06-30T01:50:31.345Z,7.57
2023-06-30T01:53:36.760Z,7.65
2023-06-30T01:56:52.775Z,5.70
2023-06-30T01:59:58.564Z,4.82
2023-06-30T02:03:04.874Z,3.92
2023-06-30T02:06:10.453Z,4.85
2023-06-30T02:09:16.382Z,9.77
2023-06-30T02:12:23.389Z,5.00
2023-06-30T02:15:29.066Z,8.00
2023-06-30T02:18:34.192Z,5.00
2023-06-30T02:21:39.592Z,7.03
2023-06-30T02:24:45.114Z,5.68
2023-06-30T02:27:52.288Z,7.50
2023-06-30T02:30:58.392Z,3.30
2023-06-30T02:34:04.843Z,3.83
2023-06-30T02:37:11.065Z,3.42
2023-06-30T02:40:16.235Z,6.28
2023-06-30T02:43:21.453Z,5.85
2023-06-30T02:46:26.834Z,3.78
2023-06-30T02:49:34.147Z,3.35
2023-06-30T02:52:40.429Z,8.38
2023-06-30T02:55:46.894Z,4.32
2023-06-30T02:58:54.120Z,6.63
2023-06-30T03:02:01.452Z,4.40
2023-06-30T03:05:09.654Z,3.67
2023-06-30T03:08:15.803Z,3.80
2023-06-30T03:11:25.910Z,4.65
2023-06-30T03:14:31.543Z,6.85
2023-06-30T03:17:38.302Z,3.72
2023-06-30T03:20:44.068Z,4.15
2023-06-30T03:23:49.706Z,7.25
2023-06-30T03:26:54.862Z,4.95
2023-06-30T03:30:05.630Z,4.25
2023-06-30T03:33:15.124Z,6.57
2023-06-30T03:36:21.038Z,6.93
2023-06-30T03:39:26.547Z,5.68
2023-06-30T03:42:33.464Z,2.95
2023-06-30T03:45:40.590Z,7.40
2023-06-30T03:48:46.245Z,8.40
2023-06-30T03:51:51.863Z,6.90
2023-06-30T03:54:57.483Z,5.20
2023-06-30T03:58:04.007Z,7.13
2023-06-30T04:01:09.465Z,13.80
2023-06-30T04:04:15.075Z,6.20
2023-06-30T04:07:21.098Z,6.95
2023-06-30T04:10:26.521Z,5.32
2023-06-30T04:13:31.874Z,3.50
2023-06-30T04:16:37.768Z,5.13
2023-06-30T04:19:43.287Z,6.10
2023-06-30T04:22:49.773Z,5.60
2023-06-30T04:25:55.317Z,4.78
2023-06-30T04:29:01.163Z,6.22
2023-06-30T04:32:06.991Z,5.68
2023-06-30T04:35:12.874Z,8.50
2023-06-30T04:38:22.735Z,5.55
2023-06-30T04:41:29.432Z,5.13
2023-06-30T04:44:35.083Z,6.55
2023-06-30T04:47:41.086Z,12.43
2023-06-30T04:50:46.708Z,7.97
2023-06-30T04:53:52.900Z,5.53
2023-06-30T04:56:58.728Z,8.05
2023-06-30T05:00:04.909Z,53.08
2023-06-30T05:03:10.137Z,7.90
2023-06-30T05:06:15.713Z,6.88
2023-06-30T05:09:23.905Z,7.47
2023-06-30T05:12:29.224Z,5.40
2023-06-30T05:15:34.521Z,5.88
2023-06-30T05:18:39.915Z,4.18
2023-06-30T05:21:45.439Z,7.82
2023-06-30T05:24:50.885Z,7.03
2023-06-30T05:27:56.070Z,12.55
2023-06-30T05:31:01.912Z,9.07
2023-06-30T05:34:07.606Z,7.40
2023-06-30T05:37:13.360Z,7.03
2023-06-30T05:40:19.262Z,8.40
2023-06-30T05:43:24.869Z,5.00
2023-06-30T05:46:30.605Z,5.10
2023-06-30T05:49:35.682Z,7.20
2023-06-30T05:52:41.305Z,16.35
2023-06-30T05:55:46.960Z,9.63
2023-06-30T05:58:52.722Z,5.03
2023-06-30T06:01:58.509Z,5.90
2023-06-30T06:05:04.976Z,7.20
2023-06-30T06:08:10.509Z,3.45
2023-06-30T06:11:16.780Z,10.68
2023-06-30T06:14:22.690Z,5.68
2023-06-30T06:17:28.449Z,3.15
2023-06-30T06:20:35.915Z,5.22
2023-06-30T06:23:41.604Z,6.90
2023-06-30T06:26:47.251Z,5.30
2023-06-30T06:29:52.744Z,4.35
2023-06-30T06:32:58.423Z,5.95
2023-06-30T06:36:04.566Z,6.97
2023-06-30T06:39:10.546Z,4.53
2023-06-30T06:42:17.078Z,5.68
2023-06-30T06:48:33.236Z,3.80
2023-06-30T06:51:38.791Z,6.18
2023-06-30T06:54:44.448Z,2.70
2023-06-30T06:57:50.126Z,5.05
2023-06-30T07:00:56.269Z,3.95
2023-06-30T07:04:02.399Z,2.75
2023-06-30T07:07:08.028Z,4.32
2023-06-30T07:10:13.659Z,2.80
2023-06-30T07:13:21.628Z,5.53
2023-06-30T07:16:27.793Z,4.95
2023-06-30T07:19:33.682Z,2.88
2023-06-30T07:22:39.194Z,5.57
2023-06-30T07:25:46.012Z,5.80
2023-06-30T07:28:52.484Z,5.45
2023-06-30T07:31:58.472Z,4.97
2023-06-30T07:35:04.217Z,7.50
2023-06-30T07:38:10.171Z,2.97
2023-06-30T07:41:15.848Z,6.15
2023-06-30T07:44:22.168Z,2.97
2023-06-30T07:47:28.017Z,4.38
2023-06-30T07:50:33.702Z,3.10
2023-06-30T07:53:40.474Z,10.95
2023-06-30T07:56:47.654Z,3.42
2023-06-30T07:59:53.542Z,1.42
2023-06-30T08:02:59.900Z,5.88
2023-06-30T08:06:06.419Z,3.15
2023-06-30T08:09:12.339Z,2.70
2023-06-30T08:12:17.753Z,4.35
2023-06-30T08:15:23.322Z,2.83
2023-06-30T08:18:32.123Z,4.10
2023-06-30T08:21:41.175Z,8.13
2023-06-30T08:24:47.259Z,5.50
2023-06-30T08:27:53.348Z,3.83
2023-06-30T08:30:58.727Z,2.88
2023-06-30T08:34:04.415Z,2.13
2023-06-30T08:37:09.915Z,4.35
2023-06-30T08:40:22.970Z,2.65
2023-06-30T08:43:30.607Z,3.30
2023-06-30T08:46:36.260Z,2.65
2023-06-30T08:49:43.329Z,2.28
2023-06-30T08:52:49.299Z,2.45
2023-06-30T08:55:58.310Z,1.95
2023-06-30T08:59:03.695Z,2.50
2023-06-30T09:02:09.890Z,2.17
2023-06-30T09:05:16.249Z,4.63
2023-06-30T09:08:27.678Z,3.33
2023-06-30T09:11:35.400Z,4.55
2023-06-30T09:14:42.674Z,3.25
2023-06-30T09:17:48.376Z,2.25
2023-06-30T09:20:54.733Z,3.38
2023-06-30T09:24:00.885Z,1.58
2023-06-30T09:27:07.818Z,2.75
2023-06-30T09:30:13.954Z,2.40
2023-06-30T09:33:21.980Z,2.15
2023-06-30T09:36:27.811Z,1.38
2023-06-30T09:39:33.549Z,2.10
2023-06-30T09:42:39.408Z,2.78
2023-06-30T09:46:07.015Z,3.17
2023-06-30T09:49:25.037Z,3.42
2023-06-30T09:52:32.645Z,2.67
2023-06-30T09:55:51.484Z,1.73
2023-06-30T09:59:00.838Z,2.53
2023-06-30T10:02:06.453Z,1.98
2023-06-30T10:05:12.497Z,4.18
2023-06-30T10:08:18.301Z,2.83
2023-06-30T10:11:25.104Z,2.72
2023-06-30T10:14:32.993Z,3.42
2023-06-30T10:17:44.878Z,4.75
2023-06-30T10:20:50.939Z,6.55
2023-06-30T10:23:57.915Z,5.25
2023-06-30T10:27:03.686Z,2.85
2023-06-30T10:30:09.755Z,4.68
2023-06-30T10:33:15.418Z,2.58
2023-06-30T10:36:21.608Z,3.03
2023-06-30T10:39:28.378Z,2.67
2023-06-30T10:42:42.880Z,3.03
2023-06-30T10:46:12.528Z,4.88
2023-06-30T10:49:28.749Z,5.68
2023-06-30T10:52:34.063Z,9.95
2023-06-30T10:55:45.055Z,4.45
2023-06-30T10:58:51.670Z,1.92
2023-06-30T11:02:20.246Z,2.78
2023-06-30T11:05:28.579Z,1.42
2023-06-30T11:08:34.218Z,4.57
2023-06-30T11:11:52.737Z,3.10
2023-06-30T11:15:00.191Z,5.40
2023-06-30T11:18:22.708Z,5.00
2023-06-30T11:21:28.325Z,5.13
2023-06-30T11:24:35.159Z,5.15
2023-06-30T11:27:41.837Z,3.00
2023-06-30T11:30:47.652Z,4.43
2023-06-30T11:33:55.215Z,3.65
2023-06-30T11:37:06.584Z,4.10
2023-06-30T11:40:12.543Z,2.25
2023-06-30T11:43:19.030Z,2.70
2023-06-30T11:46:25.175Z,3.70
2023-06-30T11:49:36.648Z,5.13
2023-06-30T11:52:42.099Z,2.05
2023-06-30T11:55:47.858Z,5.43
2023-06-30T11:58:54.955Z,5.28
2023-06-30T12:02:04.194Z,3.90
2023-06-30T12:05:15.822Z,3.97
2023-06-30T12:08:22.147Z,3.95
2023-06-30T12:11:31.665Z,5.88
2023-06-30T12:14:42.250Z,7.15
2023-06-30T12:17:48.171Z,4.65
2023-06-30T12:20:53.657Z,5.60
2023-06-30T12:23:59.252Z,5.63
2023-06-30T12:27:07.441Z,5.18
2023-06-30T12:30:18.020Z,8.15
2023-06-30T12:33:23.656Z,5.90
2023-06-30T12:36:32.213Z,4.82
2023-06-30T12:39:37.677Z,4.90
2023-06-30T12:42:48.459Z,4.70
2023-06-30T12:45:53.908Z,3.28
2023-06-30T12:48:59.724Z,9.05
2023-06-30T12:52:05.952Z,5.90
2023-06-30T12:55:11.763Z,5.85
2023-06-30T12:58:17.706Z,5.05
2023-06-30T13:01:23.452Z,9.32
2023-06-30T13:04:29.390Z,6.15
2023-06-30T13:07:36.277Z,7.18
2023-06-30T13:10:42.247Z,8.40
2023-06-30T13:13:47.724Z,7.65
2023-06-30T13:16:53.205Z,8.82
2023-06-30T13:19:59.354Z,9.00
2023-06-30T13:23:14.529Z,11.20
2023-06-30T13:29:30.805Z,7.10
2023-06-30T13:32:36.128Z,9.27
2023-06-30T13:35:41.714Z,16.55
2023-06-30T13:38:48.329Z,15.27
2023-06-30T13:41:54.030Z,12.05
2023-06-30T13:44:59.671Z,6.35
2023-06-30T13:48:06.265Z,9.20
2023-06-30T13:51:11.902Z,8.15
2023-06-30T13:54:18.718Z,8.60
2023-06-30T13:57:24.233Z,8.90
2023-06-30T14:00:30.871Z,7.45
2023-06-30T14:03:41.722Z,9.00
2023-06-30T14:09:52.903Z,7.47
2023-06-30T14:12:59.380Z,8.95
2023-06-30T14:16:05.498Z,8.70
2023-06-30T14:19:10.961Z,9.63
2023-06-30T14:22:16.817Z,7.32
2023-06-30T14:25:24.762Z,7.18
2023-06-30T14:28:30.455Z,7.80
2023-06-30T14:31:36.008Z,10.50
2023-06-30T14:34:42.572Z,17.48
2023-06-30T14:37:52.570Z,10.65
2023-06-30T14:40:58.431Z,12.68
2023-06-30T14:44:04.366Z,13.40
2023-06-30T14:47:10.190Z,14.65
2023-06-30T14:50:16.027Z,14.77
2023-06-30T14:53:22.660Z,12.50
2023-06-30T14:56:27.940Z,12.80
2023-06-30T14:59:33.421Z,15.00
2023-06-30T15:02:38.935Z,13.63
2023-06-30T15:05:45.150Z,15.07
2023-06-30T15:08:50.789Z,14.60
2023-06-30T15:11:56.817Z,14.68
2023-06-30T15:15:02.576Z,11.25
2023-06-30T15:18:08.369Z,12.60
2023-06-30T15:21:14.153Z,12.88
2023-06-30T15:24:19.897Z,11.10
2023-06-30T15:27:26.102Z,14.43
2023-06-30T15:30:31.616Z,10.65
2023-06-30T15:33:36.982Z,11.95
2023-06-30T15:36:42.596Z,17.20
2023-06-30T15:39:48.834Z,13.55
2023-06-30T15:42:54.687Z,15.70
2023-06-30T15:46:00.725Z,11.18
2023-06-30T15:49:06.502Z,10.60
2023-06-30T15:52:12.342Z,15.75
2023-06-30T15:55:18.746Z,16.02
2023-06-30T15:58:24.935Z,13.07
2023-06-30T16:01:30.358Z,13.85
2023-06-30T16:04:36.883Z,13.57
2023-06-30T16:07:42.584Z,10.85
2023-06-30T16:10:48.327Z,13.07
2023-06-30T16:13:53.887Z,10.95
2023-06-30T16:16:59.504Z,13.77
2023-06-30T16:20:07.424Z,14.57
2023-06-30T16:23:13.119Z,14.45
2023-06-30T16:26:21.130Z,12.70
2023-06-30T16:29:33.421Z,12.65
2023-06-30T16:32:39.100Z,15.77
2023-06-30T16:35:44.980Z,12.73
2023-06-30T16:38:50.996Z,12.70
2023-06-30T16:41:57.292Z,12.98
2023-06-30T16:45:02.587Z,9.05
2023-06-30T16:48:08.377Z,10.60
2023-06-30T16:51:14.585Z,7.47
2023-06-30T16:54:20.554Z,11.75
2023-06-30T16:57:26.070Z,9.98
2023-06-30T17:00:31.784Z,8.30
2023-06-30T17:03:37.419Z,8.13
2023-06-30T17:06:43.070Z,9.77
2023-06-30T17:09:48.841Z,10.43
2023-06-30T17:12:54.196Z,9.60
2023-06-30T17:15:59.769Z,9.35
2023-06-30T17:19:05.286Z,10.68
2023-06-30T17:22:10.914Z,7.53
2023-06-30T17:25:16.459Z,9.85
2023-06-30T17:28:22.097Z,8.38
2023-06-30T17:31:28.046Z,9.65
2023-06-30T17:34:33.571Z,10.52
2023-06-30T17:37:39.386Z,6.63
2023-06-30T17:40:45.381Z,8.60
2023-06-30T17:43:51.147Z,7.88
2023-06-30T17:46:57.485Z,11.10
2023-06-30T17:50:02.750Z,10.27
2023-06-30T17:53:08.358Z,10.48
2023-06-30T17:56:14.047Z,7.53
2023-06-30T17:59:19.855Z,9.95
2023-06-30T18:02:25.611Z,11.13
2023-06-30T18:05:31.279Z,8.95
2023-06-30T18:08:37.723Z,9.50
2023-06-30T18:11:43.497Z,10.23
2023-06-30T18:14:49.020Z,10.40
2023-06-30T18:17:55.375Z,14.27
2023-06-30T18:21:00.888Z,11.40
2023-06-30T18:24:07.615Z,9.80
2023-06-30T18:27:13.165Z,10.27
2023-06-30T18:30:18.931Z,8.95
2023-06-30T18:33:25.105Z,8.15
2023-06-30T18:36:30.712Z,8.82
2023-06-30T18:39:36.497Z,7.55
2023-06-30T18:42:42.482Z,8.43
2023-06-30T18:45:48.107Z,6.32
2023-06-30T18:48:54.307Z,7.43
2023-06-30T18:51:59.958Z,9.98
2023-06-30T18:55:06.177Z,8.40
2023-06-30T18:58:11.525Z,10.55
2023-06-30T19:01:17.303Z,8.15
2023-06-30T19:04:23.166Z,9.30
2023-06-30T19:07:29.094Z,11.52
2023-06-30T19:10:34.794Z,8.50
2023-06-30T19:13:40.242Z,7.07
2023-06-30T19:16:45.931Z,10.43
2023-06-30T19:19:51.717Z,8.73
2023-06-30T19:22:57.445Z,8.68
2023-06-30T19:26:03.866Z,9.38
2023-06-30T19:29:09.253Z,8.10
2023-06-30T19:32:15.183Z,9.77
2023-06-30T19:35:20.864Z,11.38
2023-06-30T19:38:28.792Z,8.65
2023-06-30T19:41:34.860Z,8.65
2023-06-30T19:44:42.214Z,9.73
2023-06-30T19:47:47.716Z,9.65
2023-06-30T19:50:53.234Z,11.13
2023-06-30T19:53:58.926Z,12.45
2023-06-30T19:57:04.692Z,10.13
2023-06-30T20:00:11.566Z,9.50
2023-06-30T20:03:20.354Z,10.13
2023-06-30T20:06:26.520Z,12.80
2023-06-30T20:09:31.927Z,11.93
2023-06-30T20:12:37.710Z,11.68
2023-06-30T20:15:43.053Z,11.13
2023-06-30T20:18:48.346Z,12.57
2023-06-30T20:21:54.979Z,12.57
2023-06-30T20:25:00.291Z,11.43
2023-06-30T20:28:05.399Z,11.00
2023-06-30T20:31:10.799Z,11.90
2023-06-30T20:34:16.295Z,9.98
2023-06-30T20:37:21.390Z,10.32
2023-06-30T20:40:26.839Z,11.77
2023-06-30T20:43:32.148Z,9.55
2023-06-30T20:46:37.363Z,9.70
2023-06-30T20:49:42.380Z,9.20
2023-06-30T20:52:47.362Z,11.43
2023-06-30T20:55:52.853Z,9.57
2023-06-30T20:58:57.908Z,11.50
2023-06-30T21:02:03.540Z,12.50
2023-06-30T21:05:09.334Z,11.73
2023-06-30T21:08:14.382Z,12.55
2023-06-30T21:11:19.668Z,13.40
2023-06-30T21:14:25.283Z,12.40
2023-06-30T21:17:30.867Z,11.18
2023-06-30T21:20:36.325Z,13.25
2023-06-30T21:23:41.578Z,11.15
2023-06-30T21:26:47.462Z,13.98
2023-06-30T21:29:53.012Z,11.73
2023-06-30T21:32:58.416Z,13.15
2023-06-30T21:36:04.522Z,11.60
2023-06-30T21:39:10.145Z,11.50
2023-06-30T21:42:16.224Z,11.52
2023-06-30T21:45:22.190Z,12.30
2023-06-30T21:48:27.892Z,11.45
2023-06-30T21:51:33.015Z,13.10
2023-06-30T21:54:47.871Z,10.32
2023-06-30T21:57:54.514Z,10.05
2023-06-30T22:00:59.964Z,15.50
2023-06-30T22:04:05.988Z,10.48
2023-06-30T22:07:12.120Z,10.48
2023-06-30T22:10:19.266Z,11.65
2023-06-30T22:13:24.661Z,10.57
2023-06-30T22:16:30.177Z,10.20
2023-06-30T22:19:37.829Z,13.23
2023-06-30T22:22:44.146Z,15.35
2023-06-30T22:25:49.508Z,12.23
2023-06-30T22:28:54.861Z,11.48
2023-06-30T22:32:00.556Z,11.65
2023-06-30T22:35:06.571Z,15.15
2023-06-30T22:38:12.232Z,15.77
2023-06-30T22:41:18.134Z,15.27
2023-06-30T22:44:23.857Z,15.07
2023-06-30T22:47:29.418Z,15.25
2023-06-30T22:50:34.593Z,14.25
2023-06-30T22:53:39.876Z,14.75
2023-06-30T22:56:45.076Z,16.05
2023-06-30T22:59:52.638Z,22.50
2023-06-30T23:03:00.972Z,22.60
2023-06-30T23:06:06.927Z,22.92
2023-06-30T23:09:12.816Z,21.73
2023-06-30T23:12:18.334Z,20.83
2023-06-30T23:15:23.836Z,22.08
2023-06-30T23:18:38.984Z,19.80
2023-06-30T23:21:45.623Z,23.80
2023-06-30T23:24:51.585Z,20.80
2023-06-30T23:27:57.210Z,22.58
2023-06-30T23:31:03.005Z,22.35
2023-06-30T23:34:08.690Z,21.90
2023-06-30T23:37:16.763Z,20.23
2023-06-30T23:40:23.373Z,20.30
2023-06-30T23:43:29.150Z,18.10
2023-06-30T23:46:34.553Z,17.45
2023-06-30T23:49:39.786Z,18.02
2023-06-30T23:52:45.126Z,19.77
2023-06-30T23:55:51.183Z,18.80
2023-06-30T23:58:56.507Z,18.33
